sensor_id;sensor_type;location;lat;lon;timestamp;P1;durP1;ratioP1;P2;durP2;ratioP2
3341;SDS011;1684;50.748;6.154;2023-02-04T00:00:46;8.80;;;2.20;;
3341;SDS011;1684;50.748;6.154;2023-02-04T00:03:14;7.80;;;3.20;;
3341;SDS011;1684;50.748;6.154;2023-02-04T00:05:42;7.97;;;3.23;;
3341;SDS011;1684;50.748;6.154;2023-02-04T00:08:12;9.27;;;2.70;;
3341;SDS011;1684;50.748;6.154;2023-02-04T00:10:41;6.83;;;1.50;;
3341;SDS011;1684;50.748;6.154;2023-02-04T00:13:09;10.00;;;2.37;;
3341;SDS011;1684;50.748;6.154;2023-02-04T00:15:37;11.23;;;2.30;;
3341;SDS011;1684;50.748;6.154;2023-02-04T00:18:06;6.50;;;2.53;;
3341;SDS011;1684;50.748;6.154;2023-02-04T00:20:34;14.80;;;2.50;;
3341;SDS011;1684;50.748;6.154;2023-02-04T00:23:03;9.70;;;3.23;;
3341;SDS011;1684;50.748;6.154;2023-02-04T00:25:32;6.83;;;1.37;;
3341;SDS011;1684;50.748;6.154;2023-02-04T00:28:00;8.97;;;2.20;;
3341;SDS011;1684;50.748;6.154;2023-02-04T00:30:29;9.50;;;2.03;;
3341;SDS011;1684;50.748;6.154;2023-02-04T00:32:57;8.10;;;2.33;;
3341;SDS011;1684;50.748;6.154;2023-02-04T00:35:26;4.80;;;2.00;;
3341;SDS011;1684;50.748;6.154;2023-02-04T00:37:54;8.67;;;2.23;;
3341;SDS011;1684;50.748;6.154;2023-02-04T00:40:22;5.90;;;2.10;;
3341;SDS011;1684;50.748;6.154;2023-02-04T00:42:52;5.50;;;1.80;;
3341;SDS011;1684;50.748;6.154;2023-02-04T00:45:20;9.10;;;2.43;;
3341;SDS011;1684;50.748;6.154;2023-02-04T00:47:49;6.33;;;1.80;;
3341;SDS011;1684;50.748;6.154;2023-02-04T00:50:18;6.43;;;2.00;;
3341;SDS011;1684;50.748;6.154;2023-02-04T00:52:46;11.10;;;3.17;;
3341;SDS011;1684;50.748;6.154;2023-02-04T00:55:14;9.40;;;2.70;;
3341;SDS011;1684;50.748;6.154;2023-02-04T00:57:43;6.23;;;1.80;;
3341;SDS011;1684;50.748;6.154;2023-02-04T01:00:14;4.30;;;1.37;;
3341;SDS011;1684;50.748;6.154;2023-02-04T01:02:43;6.57;;;2.00;;
3341;SDS011;1684;50.748;6.154;2023-02-04T01:05:11;5.23;;;2.20;;
3341;SDS011;1684;50.748;6.154;2023-02-04T01:07:39;6.03;;;2.60;;
3341;SDS011;1684;50.748;6.154;2023-02-04T01:10:08;6.47;;;1.90;;
3341;SDS011;1684;50.748;6.154;2023-02-04T01:12:36;6.40;;;2.20;;
3341;SDS011;1684;50.748;6.154;2023-02-04T01:15:05;8.53;;;2.20;;
3341;SDS011;1684;50.748;6.154;2023-02-04T01:17:35;10.00;;;3.03;;
3341;SDS011;1684;50.748;6.154;2023-02-04T01:20:03;6.73;;;1.90;;
3341;SDS011;1684;50.748;6.154;2023-02-04T01:22:31;10.47;;;3.53;;
3341;SDS011;1684;50.748;6.154;2023-02-04T01:25:00;10.10;;;2.77;;
3341;SDS011;1684;50.748;6.154;2023-02-04T01:27:28;6.27;;;2.63;;
3341;SDS011;1684;50.748;6.154;2023-02-04T01:29:56;6.77;;;2.10;;
3341;SDS011;1684;50.748;6.154;2023-02-04T01:32:25;9.60;;;2.50;;
3341;SDS011;1684;50.748;6.154;2023-02-04T01:34:54;9.73;;;2.67;;
3341;SDS011;1684;50.748;6.154;2023-02-04T01:37:23;11.93;;;3.27;;
3341;SDS011;1684;50.748;6.154;2023-02-04T01:39:51;8.23;;;2.30;;
3341;SDS011;1684;50.748;6.154;2023-02-04T01:42:19;5.77;;;1.50;;
3341;SDS011;1684;50.748;6.154;2023-02-04T01:44:48;13.57;;;2.37;;
3341;SDS011;1684;50.748;6.154;2023-02-04T01:47:16;8.47;;;2.27;;
3341;SDS011;1684;50.748;6.154;2023-02-04T01:49:45;5.23;;;1.73;;
3341;SDS011;1684;50.748;6.154;2023-02-04T01:52:15;11.80;;;2.40;;
3341;SDS011;1684;50.748;6.154;2023-02-04T01:54:44;11.20;;;2.47;;
3341;SDS011;1684;50.748;6.154;2023-02-04T01:57:14;11.30;;;2.60;;
3341;SDS011;1684;50.748;6.154;2023-02-04T01:59:42;7.40;;;2.40;;
3341;SDS011;1684;50.748;6.154;2023-02-04T02:04:54;8.43;;;3.40;;
3341;SDS011;1684;50.748;6.154;2023-02-04T02:07:24;8.23;;;1.97;;
3341;SDS011;1684;50.748;6.154;2023-02-04T02:09:52;8.37;;;2.87;;
3341;SDS011;1684;50.748;6.154;2023-02-04T02:12:20;10.13;;;3.00;;
3341;SDS011;1684;50.748;6.154;2023-02-04T02:14:49;4.63;;;2.13;;
3341;SDS011;1684;50.748;6.154;2023-02-04T02:17:17;4.57;;;1.87;;
3341;SDS011;1684;50.748;6.154;2023-02-04T02:19:45;7.47;;;2.20;;
3341;SDS011;1684;50.748;6.154;2023-02-04T02:22:15;8.93;;;2.27;;
3341;SDS011;1684;50.748;6.154;2023-02-04T02:24:46;15.67;;;2.07;;
3341;SDS011;1684;50.748;6.154;2023-02-04T02:27:14;5.17;;;1.53;;
3341;SDS011;1684;50.748;6.154;2023-02-04T02:29:43;11.10;;;2.50;;
3341;SDS011;1684;50.748;6.154;2023-02-04T02:32:11;12.87;;;3.00;;
3341;SDS011;1684;50.748;6.154;2023-02-04T02:34:41;8.70;;;2.03;;
3341;SDS011;1684;50.748;6.154;2023-02-04T02:37:10;8.03;;;2.33;;
3341;SDS011;1684;50.748;6.154;2023-02-04T02:39:39;13.20;;;2.40;;
3341;SDS011;1684;50.748;6.154;2023-02-04T02:42:10;8.77;;;2.60;;
3341;SDS011;1684;50.748;6.154;2023-02-04T02:44:39;7.80;;;3.17;;
3341;SDS011;1684;50.748;6.154;2023-02-04T02:47:08;9.17;;;2.37;;
3341;SDS011;1684;50.748;6.154;2023-02-04T02:49:39;10.70;;;3.10;;
3341;SDS011;1684;50.748;6.154;2023-02-04T02:52:08;11.70;;;2.63;;
3341;SDS011;1684;50.748;6.154;2023-02-04T02:54:37;7.60;;;3.13;;
3341;SDS011;1684;50.748;6.154;2023-02-04T02:57:11;13.17;;;3.37;;
3341;SDS011;1684;50.748;6.154;2023-02-04T02:59:40;7.40;;;1.67;;
3341;SDS011;1684;50.748;6.154;2023-02-04T03:02:09;8.07;;;2.83;;
3341;SDS011;1684;50.748;6.154;2023-02-04T03:04:39;9.33;;;2.20;;
3341;SDS011;1684;50.748;6.154;2023-02-04T03:07:08;8.90;;;2.40;;
3341;SDS011;1684;50.748;6.154;2023-02-04T03:09:37;5.00;;;1.80;;
3341;SDS011;1684;50.748;6.154;2023-02-04T03:12:05;9.97;;;2.57;;
3341;SDS011;1684;50.748;6.154;2023-02-04T03:14:35;9.40;;;2.57;;
3341;SDS011;1684;50.748;6.154;2023-02-04T03:17:04;9.83;;;2.63;;
3341;SDS011;1684;50.748;6.154;2023-02-04T03:19:34;16.60;;;2.63;;
3341;SDS011;1684;50.748;6.154;2023-02-04T03:22:02;9.13;;;2.60;;
3341;SDS011;1684;50.748;6.154;2023-02-04T03:24:31;8.80;;;2.47;;
3341;SDS011;1684;50.748;6.154;2023-02-04T03:26:59;7.40;;;2.37;;
3341;SDS011;1684;50.748;6.154;2023-02-04T03:29:28;9.27;;;2.60;;
3341;SDS011;1684;50.748;6.154;2023-02-04T03:31:58;9.40;;;2.23;;
3341;SDS011;1684;50.748;6.154;2023-02-04T03:34:26;15.50;;;2.67;;
3341;SDS011;1684;50.748;6.154;2023-02-04T03:36:54;13.47;;;3.10;;
3341;SDS011;1684;50.748;6.154;2023-02-04T03:39:23;11.53;;;2.63;;
3341;SDS011;1684;50.748;6.154;2023-02-04T03:41:52;10.90;;;2.03;;
3341;SDS011;1684;50.748;6.154;2023-02-04T03:44:20;8.90;;;2.60;;
3341;SDS011;1684;50.748;6.154;2023-02-04T03:46:52;6.73;;;2.03;;
3341;SDS011;1684;50.748;6.154;2023-02-04T03:49:22;5.00;;;1.83;;
3341;SDS011;1684;50.748;6.154;2023-02-04T03:51:50;5.57;;;2.10;;
3341;SDS011;1684;50.748;6.154;2023-02-04T03:54:18;5.70;;;2.17;;
3341;SDS011;1684;50.748;6.154;2023-02-04T03:56:46;6.43;;;2.33;;
3341;SDS011;1684;50.748;6.154;2023-02-04T03:59:15;9.60;;;1.87;;
3341;SDS011;1684;50.748;6.154;2023-02-04T04:01:43;10.97;;;2.37;;
3341;SDS011;1684;50.748;6.154;2023-02-04T04:04:12;13.80;;;3.60;;
3341;SDS011;1684;50.748;6.154;2023-02-04T04:06:41;11.10;;;2.10;;
3341;SDS011;1684;50.748;6.154;2023-02-04T04:09:09;5.77;;;2.40;;
3341;SDS011;1684;50.748;6.154;2023-02-04T04:11:38;11.90;;;2.87;;
3341;SDS011;1684;50.748;6.154;2023-02-04T04:14:06;14.10;;;2.00;;
3341;SDS011;1684;50.748;6.154;2023-02-04T04:16:34;10.73;;;2.70;;
3341;SDS011;1684;50.748;6.154;2023-02-04T04:19:02;6.73;;;2.80;;
3341;SDS011;1684;50.748;6.154;2023-02-04T04:21:30;7.77;;;1.60;;
3341;SDS011;1684;50.748;6.154;2023-02-04T04:24:00;8.10;;;2.50;;
3341;SDS011;1684;50.748;6.154;2023-02-04T04:26:28;8.17;;;2.13;;
3341;SDS011;1684;50.748;6.154;2023-02-04T04:28:57;9.43;;;2.27;;
3341;SDS011;1684;50.748;6.154;2023-02-04T04:31:25;11.30;;;2.70;;
3341;SDS011;1684;50.748;6.154;2023-02-04T04:33:53;9.20;;;2.67;;
3341;SDS011;1684;50.748;6.154;2023-02-04T04:36:22;11.70;;;2.40;;
3341;SDS011;1684;50.748;6.154;2023-02-04T04:38:50;7.73;;;2.67;;
3341;SDS011;1684;50.748;6.154;2023-02-04T04:41:20;8.00;;;2.70;;
3341;SDS011;1684;50.748;6.154;2023-02-04T04:43:48;13.10;;;2.20;;
3341;SDS011;1684;50.748;6.154;2023-02-04T04:46:16;8.90;;;2.00;;
3341;SDS011;1684;50.748;6.154;2023-02-04T04:48:44;8.83;;;2.33;;
3341;SDS011;1684;50.748;6.154;2023-02-04T04:51:13;8.27;;;1.80;;
3341;SDS011;1684;50.748;6.154;2023-02-04T04:53:41;5.50;;;1.77;;
3341;SDS011;1684;50.748;6.154;2023-02-04T04:56:09;14.60;;;3.63;;
3341;SDS011;1684;50.748;6.154;2023-02-04T04:58:39;7.57;;;2.33;;
3341;SDS011;1684;50.748;6.154;2023-02-04T05:01:07;10.23;;;3.30;;
3341;SDS011;1684;50.748;6.154;2023-02-04T05:03:35;7.07;;;2.23;;
3341;SDS011;1684;50.748;6.154;2023-02-04T05:06:04;7.23;;;2.97;;
3341;SDS011;1684;50.748;6.154;2023-02-04T05:08:34;9.03;;;3.30;;
3341;SDS011;1684;50.748;6.154;2023-02-04T05:11:02;5.57;;;2.00;;
3341;SDS011;1684;50.748;6.154;2023-02-04T05:13:31;14.83;;;3.03;;
3341;SDS011;1684;50.748;6.154;2023-02-04T05:16:00;6.70;;;2.73;;
3341;SDS011;1684;50.748;6.154;2023-02-04T05:18:29;14.63;;;3.83;;
3341;SDS011;1684;50.748;6.154;2023-02-04T05:20:57;8.20;;;2.87;;
3341;SDS011;1684;50.748;6.154;2023-02-04T05:23:25;13.50;;;3.07;;
3341;SDS011;1684;50.748;6.154;2023-02-04T05:25:53;18.10;;;3.03;;
3341;SDS011;1684;50.748;6.154;2023-02-04T05:28:22;6.77;;;2.43;;
3341;SDS011;1684;50.748;6.154;2023-02-04T05:30:50;13.63;;;3.97;;
3341;SDS011;1684;50.748;6.154;2023-02-04T05:33:19;11.13;;;3.47;;
3341;SDS011;1684;50.748;6.154;2023-02-04T05:35:48;13.67;;;3.43;;
3341;SDS011;1684;50.748;6.154;2023-02-04T05:38:16;9.80;;;4.43;;
3341;SDS011;1684;50.748;6.154;2023-02-04T05:40:44;7.93;;;3.70;;
3341;SDS011;1684;50.748;6.154;2023-02-04T05:43:12;12.03;;;3.67;;
3341;SDS011;1684;50.748;6.154;2023-02-04T05:45:41;14.47;;;3.10;;
3341;SDS011;1684;50.748;6.154;2023-02-04T05:48:09;9.87;;;4.23;;
3341;SDS011;1684;50.748;6.154;2023-02-04T05:50:39;12.60;;;4.00;;
3341;SDS011;1684;50.748;6.154;2023-02-04T05:53:07;7.90;;;2.90;;
3341;SDS011;1684;50.748;6.154;2023-02-04T05:55:35;6.40;;;1.60;;
3341;SDS011;1684;50.748;6.154;2023-02-04T05:58:03;11.27;;;3.90;;
3341;SDS011;1684;50.748;6.154;2023-02-04T06:00:32;7.83;;;3.50;;
3341;SDS011;1684;50.748;6.154;2023-02-04T06:03:00;9.73;;;3.20;;
3341;SDS011;1684;50.748;6.154;2023-02-04T06:05:28;7.43;;;3.00;;
3341;SDS011;1684;50.748;6.154;2023-02-04T06:07:58;10.67;;;4.37;;
3341;SDS011;1684;50.748;6.154;2023-02-04T06:10:26;7.73;;;2.27;;
3341;SDS011;1684;50.748;6.154;2023-02-04T06:12:55;9.53;;;3.13;;
3341;SDS011;1684;50.748;6.154;2023-02-04T06:15:23;11.30;;;3.67;;
3341;SDS011;1684;50.748;6.154;2023-02-04T06:17:51;14.40;;;4.07;;
3341;SDS011;1684;50.748;6.154;2023-02-04T06:20:20;10.47;;;4.17;;
3341;SDS011;1684;50.748;6.154;2023-02-04T06:22:48;13.10;;;6.23;;
3341;SDS011;1684;50.748;6.154;2023-02-04T06:25:19;10.23;;;3.50;;
3341;SDS011;1684;50.748;6.154;2023-02-04T06:27:48;6.47;;;2.37;;
3341;SDS011;1684;50.748;6.154;2023-02-04T06:30:16;12.30;;;4.30;;
3341;SDS011;1684;50.748;6.154;2023-02-04T06:32:45;14.00;;;3.40;;
3341;SDS011;1684;50.748;6.154;2023-02-04T06:35:13;14.40;;;4.50;;
3341;SDS011;1684;50.748;6.154;2023-02-04T06:37:42;12.40;;;4.67;;
3341;SDS011;1684;50.748;6.154;2023-02-04T06:40:10;4.73;;;1.93;;
3341;SDS011;1684;50.748;6.154;2023-02-04T06:42:40;12.53;;;3.07;;
3341;SDS011;1684;50.748;6.154;2023-02-04T06:45:09;12.23;;;5.03;;
3341;SDS011;1684;50.748;6.154;2023-02-04T06:47:38;18.07;;;6.10;;
3341;SDS011;1684;50.748;6.154;2023-02-04T06:50:07;12.27;;;4.33;;
3341;SDS011;1684;50.748;6.154;2023-02-04T06:52:35;9.10;;;4.10;;
3341;SDS011;1684;50.748;6.154;2023-02-04T06:55:04;14.47;;;4.57;;
3341;SDS011;1684;50.748;6.154;2023-02-04T06:57:32;29.30;;;6.53;;
3341;SDS011;1684;50.748;6.154;2023-02-04T07:00:02;15.90;;;4.90;;
3341;SDS011;1684;50.748;6.154;2023-02-04T07:02:31;18.70;;;6.27;;
3341;SDS011;1684;50.748;6.154;2023-02-04T07:05:00;15.80;;;6.07;;
3341;SDS011;1684;50.748;6.154;2023-02-04T07:07:28;20.20;;;6.20;;
3341;SDS011;1684;50.748;6.154;2023-02-04T07:09:56;6.57;;;2.40;;
3341;SDS011;1684;50.748;6.154;2023-02-04T07:12:25;5.80;;;2.20;;
3341;SDS011;1684;50.748;6.154;2023-02-04T07:14:53;6.80;;;2.07;;
3341;SDS011;1684;50.748;6.154;2023-02-04T07:17:23;7.30;;;2.90;;
3341;SDS011;1684;50.748;6.154;2023-02-04T07:19:52;6.37;;;2.30;;
3341;SDS011;1684;50.748;6.154;2023-02-04T07:22:20;10.87;;;4.60;;
3341;SDS011;1684;50.748;6.154;2023-02-04T07:24:48;25.97;;;6.97;;
3341;SDS011;1684;50.748;6.154;2023-02-04T07:27:17;18.00;;;6.57;;
3341;SDS011;1684;50.748;6.154;2023-02-04T07:29:45;15.70;;;5.63;;
3341;SDS011;1684;50.748;6.154;2023-02-04T07:32:13;13.70;;;6.60;;
3341;SDS011;1684;50.748;6.154;2023-02-04T07:34:43;27.47;;;8.07;;
3341;SDS011;1684;50.748;6.154;2023-02-04T07:37:13;16.90;;;7.53;;
3341;SDS011;1684;50.748;6.154;2023-02-04T07:39:41;21.97;;;8.30;;
3341;SDS011;1684;50.748;6.154;2023-02-04T07:42:10;20.77;;;8.10;;
3341;SDS011;1684;50.748;6.154;2023-02-04T07:44:38;28.03;;;11.07;;
3341;SDS011;1684;50.748;6.154;2023-02-04T07:47:06;20.53;;;10.23;;
3341;SDS011;1684;50.748;6.154;2023-02-04T07:49:35;25.73;;;9.93;;
3341;SDS011;1684;50.748;6.154;2023-02-04T07:52:05;9.33;;;3.80;;
3341;SDS011;1684;50.748;6.154;2023-02-04T07:54:33;34.17;;;10.93;;
3341;SDS011;1684;50.748;6.154;2023-02-04T07:57:01;22.03;;;9.20;;
3341;SDS011;1684;50.748;6.154;2023-02-04T07:59:30;36.40;;;11.20;;
3341;SDS011;1684;50.748;6.154;2023-02-04T08:01:58;29.27;;;11.00;;
3341;SDS011;1684;50.748;6.154;2023-02-04T08:04:27;20.37;;;8.30;;
3341;SDS011;1684;50.748;6.154;2023-02-04T08:06:56;26.67;;;11.27;;
3341;SDS011;1684;50.748;6.154;2023-02-04T08:09:25;9.97;;;4.60;;
3341;SDS011;1684;50.748;6.154;2023-02-04T08:11:53;11.20;;;5.63;;
3341;SDS011;1684;50.748;6.154;2023-02-04T08:14:22;23.00;;;4.90;;
3341;SDS011;1684;50.748;6.154;2023-02-04T08:16:51;38.70;;;11.00;;
3341;SDS011;1684;50.748;6.154;2023-02-04T08:19:19;26.40;;;8.70;;
3341;SDS011;1684;50.748;6.154;2023-02-04T08:21:47;15.50;;;6.20;;
3341;SDS011;1684;50.748;6.154;2023-02-04T08:24:18;11.13;;;4.80;;
3341;SDS011;1684;50.748;6.154;2023-02-04T08:26:47;12.37;;;4.40;;
3341;SDS011;1684;50.748;6.154;2023-02-04T08:29:17;11.90;;;4.40;;
3341;SDS011;1684;50.748;6.154;2023-02-04T08:31:45;11.53;;;4.40;;
3341;SDS011;1684;50.748;6.154;2023-02-04T08:34:32;16.97;;;4.60;;
3341;SDS011;1684;50.748;6.154;2023-02-04T08:37:00;22.50;;;9.37;;
3341;SDS011;1684;50.748;6.154;2023-02-04T08:39:28;30.20;;;12.30;;
3341;SDS011;1684;50.748;6.154;2023-02-04T08:41:59;42.13;;;12.37;;
3341;SDS011;1684;50.748;6.154;2023-02-04T08:44:35;13.43;;;5.07;;
3341;SDS011;1684;50.748;6.154;2023-02-04T08:47:03;12.07;;;6.10;;
3341;SDS011;1684;50.748;6.154;2023-02-04T08:49:31;12.97;;;6.57;;
3341;SDS011;1684;50.748;6.154;2023-02-04T08:52:01;14.20;;;5.80;;
3341;SDS011;1684;50.748;6.154;2023-02-04T08:54:30;12.87;;;4.97;;
3341;SDS011;1684;50.748;6.154;2023-02-04T08:57:00;15.40;;;6.20;;
3341;SDS011;1684;50.748;6.154;2023-02-04T08:59:29;32.13;;;12.30;;
3341;SDS011;1684;50.748;6.154;2023-02-04T09:01:57;15.40;;;7.93;;
3341;SDS011;1684;50.748;6.154;2023-02-04T09:04:26;27.13;;;10.57;;
3341;SDS011;1684;50.748;6.154;2023-02-04T09:06:54;38.00;;;11.00;;
3341;SDS011;1684;50.748;6.154;2023-02-04T09:09:26;18.13;;;9.03;;
3341;SDS011;1684;50.748;6.154;2023-02-04T09:11:54;37.17;;;13.10;;
3341;SDS011;1684;50.748;6.154;2023-02-04T09:14:25;19.93;;;8.73;;
3341;SDS011;1684;50.748;6.154;2023-02-04T09:16:53;30.47;;;10.97;;
3341;SDS011;1684;50.748;6.154;2023-02-04T09:19:22;41.43;;;14.07;;
3341;SDS011;1684;50.748;6.154;2023-02-04T09:21:51;33.87;;;14.00;;
3341;SDS011;1684;50.748;6.154;2023-02-04T09:24:20;27.93;;;13.00;;
3341;SDS011;1684;50.748;6.154;2023-02-04T09:26:49;38.47;;;13.00;;
3341;SDS011;1684;50.748;6.154;2023-02-04T09:29:17;36.23;;;12.70;;
3341;SDS011;1684;50.748;6.154;2023-02-04T09:31:47;34.80;;;15.00;;
3341;SDS011;1684;50.748;6.154;2023-02-04T09:34:15;28.40;;;9.70;;
3341;SDS011;1684;50.748;6.154;2023-02-04T09:36:44;24.60;;;11.10;;
3341;SDS011;1684;50.748;6.154;2023-02-04T09:39:12;33.40;;;12.30;;
3341;SDS011;1684;50.748;6.154;2023-02-04T09:41:41;24.33;;;10.00;;
3341;SDS011;1684;50.748;6.154;2023-02-04T09:44:11;29.23;;;13.00;;
3341;SDS011;1684;50.748;6.154;2023-02-04T09:46:41;36.00;;;14.37;;
3341;SDS011;1684;50.748;6.154;2023-02-04T09:49:12;36.73;;;12.73;;
3341;SDS011;1684;50.748;6.154;2023-02-04T09:51:41;36.67;;;12.60;;
3341;SDS011;1684;50.748;6.154;2023-02-04T09:54:10;34.23;;;11.80;;
3341;SDS011;1684;50.748;6.154;2023-02-04T09:56:39;37.53;;;12.43;;
3341;SDS011;1684;50.748;6.154;2023-02-04T09:59:09;28.47;;;10.37;;
3341;SDS011;1684;50.748;6.154;2023-02-04T10:01:38;38.10;;;13.57;;
3341;SDS011;1684;50.748;6.154;2023-02-04T10:04:07;45.30;;;11.70;;
3341;SDS011;1684;50.748;6.154;2023-02-04T10:06:38;34.87;;;13.10;;
3341;SDS011;1684;50.748;6.154;2023-02-04T10:09:07;31.83;;;13.00;;
3341;SDS011;1684;50.748;6.154;2023-02-04T10:11:37;16.83;;;8.37;;
3341;SDS011;1684;50.748;6.154;2023-02-04T10:14:07;15.10;;;8.07;;
3341;SDS011;1684;50.748;6.154;2023-02-04T10:16:37;16.77;;;7.57;;
3341;SDS011;1684;50.748;6.154;2023-02-04T10:19:10;24.00;;;9.00;;
3341;SDS011;1684;50.748;6.154;2023-02-04T10:21:42;36.77;;;12.50;;
3341;SDS011;1684;50.748;6.154;2023-02-04T10:24:11;21.53;;;7.60;;
3341;SDS011;1684;50.748;6.154;2023-02-04T10:26:40;18.30;;;6.40;;
3341;SDS011;1684;50.748;6.154;2023-02-04T10:29:12;42.70;;;14.13;;
3341;SDS011;1684;50.748;6.154;2023-02-04T10:31:41;37.73;;;12.30;;
3341;SDS011;1684;50.748;6.154;2023-02-04T10:34:12;33.40;;;13.70;;
3341;SDS011;1684;50.748;6.154;2023-02-04T10:36:46;27.27;;;11.40;;
3341;SDS011;1684;50.748;6.154;2023-02-04T10:39:16;31.53;;;11.67;;
3341;SDS011;1684;50.748;6.154;2023-02-04T10:41:45;23.73;;;9.63;;
3341;SDS011;1684;50.748;6.154;2023-02-04T10:44:15;27.30;;;9.70;;
3341;SDS011;1684;50.748;6.154;2023-02-04T10:46:44;36.47;;;10.83;;
3341;SDS011;1684;50.748;6.154;2023-02-04T10:49:16;36.10;;;13.20;;
3341;SDS011;1684;50.748;6.154;2023-02-04T10:51:46;35.17;;;11.30;;
3341;SDS011;1684;50.748;6.154;2023-02-04T10:54:15;26.13;;;9.20;;
3341;SDS011;1684;50.748;6.154;2023-02-04T10:56:58;21.17;;;8.03;;
3341;SDS011;1684;50.748;6.154;2023-02-04T10:59:26;21.67;;;8.87;;
3341;SDS011;1684;50.748;6.154;2023-02-04T11:01:55;27.90;;;8.73;;
3341;SDS011;1684;50.748;6.154;2023-02-04T11:04:25;33.43;;;9.70;;
3341;SDS011;1684;50.748;6.154;2023-02-04T11:06:55;22.93;;;7.57;;
3341;SDS011;1684;50.748;6.154;2023-02-04T11:09:24;16.73;;;7.40;;
3341;SDS011;1684;50.748;6.154;2023-02-04T11:11:56;22.37;;;8.87;;
3341;SDS011;1684;50.748;6.154;2023-02-04T11:14:26;24.33;;;7.77;;
3341;SDS011;1684;50.748;6.154;2023-02-04T11:16:55;16.73;;;6.93;;
3341;SDS011;1684;50.748;6.154;2023-02-04T11:19:32;23.03;;;7.60;;
3341;SDS011;1684;50.748;6.154;2023-02-04T11:22:05;35.60;;;10.50;;
3341;SDS011;1684;50.748;6.154;2023-02-04T11:24:36;18.73;;;6.47;;
3341;SDS011;1684;50.748;6.154;2023-02-04T11:27:05;16.47;;;7.00;;
3341;SDS011;1684;50.748;6.154;2023-02-04T11:29:34;23.67;;;8.60;;
3341;SDS011;1684;50.748;6.154;2023-02-04T11:32:04;30.93;;;8.77;;
3341;SDS011;1684;50.748;6.154;2023-02-04T11:34:43;31.23;;;9.50;;
3341;SDS011;1684;50.748;6.154;2023-02-04T11:37:15;32.60;;;10.23;;
3341;SDS011;1684;50.748;6.154;2023-02-04T11:39:44;35.40;;;10.30;;
3341;SDS011;1684;50.748;6.154;2023-02-04T11:42:16;22.90;;;7.80;;
3341;SDS011;1684;50.748;6.154;2023-02-04T11:44:50;16.40;;;8.53;;
3341;SDS011;1684;50.748;6.154;2023-02-04T11:47:19;22.73;;;7.50;;
3341;SDS011;1684;50.748;6.154;2023-02-04T11:50:00;26.23;;;9.50;;
3341;SDS011;1684;50.748;6.154;2023-02-04T11:52:33;22.00;;;7.33;;
3341;SDS011;1684;50.748;6.154;2023-02-04T11:55:02;27.10;;;7.80;;
3341;SDS011;1684;50.748;6.154;2023-02-04T11:57:36;28.10;;;10.87;;
3341;SDS011;1684;50.748;6.154;2023-02-04T12:00:10;24.20;;;9.63;;
3341;SDS011;1684;50.748;6.154;2023-02-04T12:02:43;24.77;;;8.37;;
3341;SDS011;1684;50.748;6.154;2023-02-04T12:05:12;17.77;;;7.53;;
3341;SDS011;1684;50.748;6.154;2023-02-04T12:07:43;13.77;;;5.70;;
3341;SDS011;1684;50.748;6.154;2023-02-04T12:12:55;22.10;;;7.13;;
3341;SDS011;1684;50.748;6.154;2023-02-04T12:15:35;23.10;;;8.13;;
3341;SDS011;1684;50.748;6.154;2023-02-04T12:18:04;12.17;;;5.77;;
3341;SDS011;1684;50.748;6.154;2023-02-04T12:20:33;20.57;;;7.80;;
3341;SDS011;1684;50.748;6.154;2023-02-04T12:23:03;20.23;;;6.10;;
3341;SDS011;1684;50.748;6.154;2023-02-04T12:25:33;20.23;;;6.90;;
3341;SDS011;1684;50.748;6.154;2023-02-04T12:28:01;28.23;;;8.30;;
3341;SDS011;1684;50.748;6.154;2023-02-04T12:30:30;12.77;;;5.73;;
3341;SDS011;1684;50.748;6.154;2023-02-04T12:32:58;15.40;;;5.87;;
3341;SDS011;1684;50.748;6.154;2023-02-04T12:35:30;22.40;;;7.27;;
3341;SDS011;1684;50.748;6.154;2023-02-04T12:37:59;14.50;;;6.37;;
3341;SDS011;1684;50.748;6.154;2023-02-04T12:40:29;18.93;;;7.43;;
3341;SDS011;1684;50.748;6.154;2023-02-04T12:42:57;22.27;;;6.77;;
3341;SDS011;1684;50.748;6.154;2023-02-04T12:45:25;23.67;;;7.77;;
3341;SDS011;1684;50.748;6.154;2023-02-04T12:47:54;24.27;;;8.77;;
3341;SDS011;1684;50.748;6.154;2023-02-04T12:50:22;13.03;;;6.03;;
3341;SDS011;1684;50.748;6.154;2023-02-04T12:52:52;29.73;;;6.10;;
3341;SDS011;1684;50.748;6.154;2023-02-04T12:55:22;21.90;;;7.50;;
3341;SDS011;1684;50.748;6.154;2023-02-04T12:57:53;16.00;;;6.93;;
3341;SDS011;1684;50.748;6.154;2023-02-04T13:00:22;20.13;;;5.63;;
3341;SDS011;1684;50.748;6.154;2023-02-04T13:02:54;19.20;;;5.60;;
3341;SDS011;1684;50.748;6.154;2023-02-04T13:05:24;14.27;;;5.50;;
3341;SDS011;1684;50.748;6.154;2023-02-04T13:07:53;14.97;;;6.03;;
3341;SDS011;1684;50.748;6.154;2023-02-04T13:10:21;19.50;;;5.60;;
3341;SDS011;1684;50.748;6.154;2023-02-04T13:12:50;17.10;;;5.60;;
3341;SDS011;1684;50.748;6.154;2023-02-04T13:15:20;13.50;;;5.93;;
3341;SDS011;1684;50.748;6.154;2023-02-04T13:17:48;22.00;;;6.73;;
3341;SDS011;1684;50.748;6.154;2023-02-04T13:20:18;21.80;;;7.03;;
3341;SDS011;1684;50.748;6.154;2023-02-04T13:22:46;18.97;;;7.50;;
3341;SDS011;1684;50.748;6.154;2023-02-04T13:25:15;16.67;;;6.67;;
3341;SDS011;1684;50.748;6.154;2023-02-04T13:27:43;15.20;;;6.43;;
3341;SDS011;1684;50.748;6.154;2023-02-04T13:30:14;12.60;;;4.80;;
3341;SDS011;1684;50.748;6.154;2023-02-04T13:32:44;17.60;;;5.47;;
3341;SDS011;1684;50.748;6.154;2023-02-04T13:35:12;15.90;;;6.37;;
3341;SDS011;1684;50.748;6.154;2023-02-04T13:37:40;22.07;;;6.50;;
3341;SDS011;1684;50.748;6.154;2023-02-04T13:40:09;16.83;;;6.30;;
3341;SDS011;1684;50.748;6.154;2023-02-04T13:42:38;16.60;;;6.10;;
3341;SDS011;1684;50.748;6.154;2023-02-04T13:45:07;15.70;;;6.20;;
3341;SDS011;1684;50.748;6.154;2023-02-04T13:47:37;12.30;;;5.47;;
3341;SDS011;1684;50.748;6.154;2023-02-04T13:50:07;18.33;;;6.10;;
3341;SDS011;1684;50.748;6.154;2023-02-04T13:52:36;27.17;;;8.80;;
3341;SDS011;1684;50.748;6.154;2023-02-04T13:55:05;22.90;;;7.53;;
3341;SDS011;1684;50.748;6.154;2023-02-04T13:57:33;15.97;;;6.60;;
3341;SDS011;1684;50.748;6.154;2023-02-04T14:00:09;16.27;;;6.27;;
3341;SDS011;1684;50.748;6.154;2023-02-04T14:02:38;16.57;;;5.77;;
3341;SDS011;1684;50.748;6.154;2023-02-04T14:05:09;18.73;;;6.40;;
3341;SDS011;1684;50.748;6.154;2023-02-04T14:07:38;17.77;;;5.87;;
3341;SDS011;1684;50.748;6.154;2023-02-04T14:10:06;22.43;;;10.03;;
3341;SDS011;1684;50.748;6.154;2023-02-04T14:12:35;17.10;;;6.43;;
3341;SDS011;1684;50.748;6.154;2023-02-04T14:15:03;23.60;;;6.43;;
3341;SDS011;1684;50.748;6.154;2023-02-04T14:17:31;18.93;;;8.50;;
3341;SDS011;1684;50.748;6.154;2023-02-04T14:20:00;24.70;;;7.60;;
3341;SDS011;1684;50.748;6.154;2023-02-04T14:22:32;23.40;;;8.17;;
3341;SDS011;1684;50.748;6.154;2023-02-04T14:25:00;21.77;;;6.80;;
3341;SDS011;1684;50.748;6.154;2023-02-04T14:27:28;22.53;;;7.20;;
3341;SDS011;1684;50.748;6.154;2023-02-04T14:29:57;14.40;;;6.83;;
3341;SDS011;1684;50.748;6.154;2023-02-04T14:32:25;15.83;;;7.40;;
3341;SDS011;1684;50.748;6.154;2023-02-04T14:34:53;15.90;;;6.17;;
3341;SDS011;1684;50.748;6.154;2023-02-04T14:37:22;15.37;;;5.77;;
3341;SDS011;1684;50.748;6.154;2023-02-04T14:39:55;19.23;;;6.67;;
3341;SDS011;1684;50.748;6.154;2023-02-04T14:42:23;14.70;;;6.03;;
3341;SDS011;1684;50.748;6.154;2023-02-04T14:44:51;15.67;;;6.00;;
3341;SDS011;1684;50.748;6.154;2023-02-04T14:47:20;21.87;;;7.20;;
3341;SDS011;1684;50.748;6.154;2023-02-04T14:49:48;18.70;;;6.23;;
3341;SDS011;1684;50.748;6.154;2023-02-04T14:52:17;20.00;;;7.50;;
3341;SDS011;1684;50.748;6.154;2023-02-04T14:54:45;19.57;;;6.83;;
3341;SDS011;1684;50.748;6.154;2023-02-04T14:57:15;16.10;;;6.00;;
3341;SDS011;1684;50.748;6.154;2023-02-04T14:59:44;17.07;;;6.30;;
3341;SDS011;1684;50.748;6.154;2023-02-04T15:02:12;16.60;;;6.53;;
3341;SDS011;1684;50.748;6.154;2023-02-04T15:04:41;16.70;;;6.23;;
3341;SDS011;1684;50.748;6.154;2023-02-04T15:07:09;16.93;;;8.50;;
3341;SDS011;1684;50.748;6.154;2023-02-04T15:09:38;21.10;;;7.40;;
3341;SDS011;1684;50.748;6.154;2023-02-04T15:12:07;23.73;;;8.80;;
3341;SDS011;1684;50.748;6.154;2023-02-04T15:14:37;19.53;;;7.60;;
3341;SDS011;1684;50.748;6.154;2023-02-04T15:17:06;10.80;;;5.93;;
3341;SDS011;1684;50.748;6.154;2023-02-04T15:19:34;20.33;;;8.47;;